CLT TRACON Summary / KCLT TAF
CLT TRACON Summary:
Strong high pressure will continue to dominate the region as it moves over the Atlantic. Expect VFR conditions under with mostly upper-level cirrus through the day. Surface winds will be 7kts or less and transition from northeast to southeast after 17z. Flight Hazards: None expected in the TRACON airspace.

Updated:11/22/2014 6:20 AM
CLT Terminal Aerodrome Forecast:

FTUS42 KGSP 221125
TAFCLT
TAF
KCLT 221125Z 2212/2312 06003KT P6SM FEW250
     FM221400 16004KT P6SM FEW200
     FM230600 12003KT P6SM BKN050
     FM231000 06006KT P6SM BKN021 OVC035=
CLT TRACON Area Remark:
FROST AND RELATED DE-ICING OPERATIONS EXPECTED UNTIL 14Z.
Convective Gate Forecast / Collaborative Convective Forecast Product / Vertical Wind Profile
Convective Gate Forecast
-->
AIRMETs & SIGMETS/ Southeast Radar loop / Satellite Image (click on image to enlarge)

Southeast Radar Loop

 



USA.gov is the U.S. government's official web portal to all federal, state and local government web resources and services.